Time;durP1;ratioP1;P1;durP2;ratioP2;P2;SDS_P1;SDS_P2;PMS_P1;PMS_P2;Temp;Humidity;BMP_temperature;BMP_pressure;BME280_temperature;BME280_humidity;BME280_pressure;Samples;Min_cycle;Max_cycle;Signal;HPM_P1;HPM_P2
2022/08/05 00:01:19;;;;;;;13.73;6.43;;;17.50;99.90;;;;;;4997017;28;20045;-85
2022/08/05 00:03:48;;;;;;;14.63;6.68;;;17.50;99.90;;;;;;5003088;28;20065;-85
2022/08/05 00:06:15;;;;;;;14.80;6.53;;;17.40;99.90;;;;;;5018705;28;20116;-85
2022/08/05 00:08:41;;;;;;;15.50;6.88;;;17.40;99.90;;;;;;5013533;28;20085;-85
2022/08/05 00:11:09;;;;;;;16.55;6.88;;;17.80;99.90;;;;;;4994754;28;20104;-87
2022/08/05 00:13:38;;;;;;;14.98;6.97;;;17.30;99.90;;;;;;4995871;28;20050;-87
2022/08/05 00:16:07;;;;;;;16.75;7.30;;;17.30;99.90;;;;;;5013008;28;20037;-87
2022/08/05 00:18:33;;;;;;;16.10;6.68;;;17.30;99.90;;;;;;5013948;28;20090;-87
2022/08/05 00:20:58;;;;;;;13.77;6.82;;;17.30;99.90;;;;;;5012753;28;20594;-87
2022/08/05 00:23:24;;;;;;;16.08;7.25;;;17.30;99.90;;;;;;4995653;28;20049;-87
2022/08/05 00:25:50;;;;;;;13.50;7.00;;;17.40;99.90;;;;;;5012316;28;20049;-87
2022/08/05 00:28:16;;;;;;;12.82;6.85;;;17.30;99.90;;;;;;4995686;28;20045;-87
2022/08/05 00:30:42;;;;;;;16.70;7.43;;;17.30;99.90;;;;;;4994943;28;20050;-87
2022/08/05 00:33:08;;;;;;;15.90;7.55;;;17.40;99.90;;;;;;4994998;28;20508;-87
2022/08/05 00:35:34;;;;;;;15.15;7.82;;;17.30;99.90;;;;;;4995616;28;20044;-87
2022/08/05 00:38:00;;;;;;;14.85;7.70;;;17.80;99.90;;;;;;5011688;28;20127;-88
2022/08/05 00:40:27;;;;;;;15.63;8.05;;;17.60;99.90;;;;;;5013269;28;20065;-87
2022/08/05 00:42:53;;;;;;;16.10;8.27;;;17.40;99.90;;;;;;4995412;28;20507;-87
2022/08/05 00:45:19;;;;;;;16.50;7.47;;;17.40;99.90;;;;;;4994489;28;20038;-87
2022/08/05 00:47:44;;;;;;;16.25;7.60;;;17.40;99.90;;;;;;4994843;28;20068;-88
2022/08/05 00:50:10;;;;;;;20.30;9.23;;;17.50;99.90;;;;;;4998293;28;20408;-87
2022/08/05 00:52:36;;;;;;;13.63;7.32;;;17.40;99.90;;;;;;4994530;28;20073;-87
2022/08/05 00:55:02;;;;;;;14.73;7.88;;;17.40;99.90;;;;;;4994858;28;20096;-87
2022/08/05 00:57:27;;;;;;;18.25;8.02;;;17.30;99.90;;;;;;5013049;28;20053;-87
2022/08/05 00:59:53;;;;;;;16.85;8.02;;;17.40;99.90;;;;;;5015129;28;20046;-87
2022/08/05 01:02:19;;;;;;;19.80;8.73;;;17.40;99.90;;;;;;5012555;28;20046;-87
2022/08/05 01:04:44;;;;;;;14.38;8.00;;;17.80;99.90;;;;;;4994601;28;20045;-88
2022/08/05 01:07:10;;;;;;;16.42;7.82;;;17.40;99.90;;;;;;5012376;28;20046;-87
2022/08/05 01:09:35;;;;;;;15.57;8.23;;;17.90;99.90;;;;;;5016938;28;20038;-87
2022/08/05 01:12:22;;;;;;;16.17;8.07;;;17.40;99.90;;;;;;4998736;28;20112;-87
2022/08/05 01:15:00;;;;;;;15.15;7.80;;;17.70;99.90;;;;;;4985180;28;20050;-87
2022/08/05 01:17:34;;;;;;;16.40;7.20;;;17.40;99.90;;;;;;4998909;28;20045;-87
2022/08/05 01:20:02;;;;;;;18.88;7.97;;;17.50;99.90;;;;;;4998612;28;20128;-87
2022/08/05 01:22:50;;;;;;;16.67;7.78;;;17.50;99.90;;;;;;4998797;28;20103;-87
2022/08/05 01:25:34;;;;;;;19.33;8.23;;;17.50;99.90;;;;;;4998818;28;20133;-88
2022/08/05 01:28:26;;;;;;;17.55;7.78;;;17.40;99.90;;;;;;4997448;28;20490;-87
2022/08/05 01:31:14;;;;;;;16.15;7.68;;;17.40;99.90;;;;;;5015822;28;20104;-87
2022/08/05 01:33:50;;;;;;;15.65;7.95;;;17.80;99.90;;;;;;4998187;28;20500;-88
2022/08/05 01:36:17;;;;;;;17.42;7.97;;;17.50;99.90;;;;;;4992113;28;20395;-87
2022/08/05 01:38:46;;;;;;;15.07;8.15;;;18.00;99.90;;;;;;5025178;28;20042;-89
2022/08/05 01:41:15;;;;;;;15.57;8.02;;;17.50;99.90;;;;;;5012283;28;20405;-87
2022/08/05 01:43:41;;;;;;;14.98;7.72;;;17.50;99.90;;;;;;4998562;28;20042;-88
2022/08/05 01:46:07;;;;;;;15.75;7.78;;;17.40;99.90;;;;;;4997889;28;20038;-88
2022/08/05 01:48:35;;;;;;;17.13;8.18;;;17.50;99.90;;;;;;5015223;28;20492;-88
2022/08/05 01:51:03;;;;;;;15.68;7.32;;;17.80;99.90;;;;;;5015809;28;20053;-88
2022/08/05 01:53:30;;;;;;;19.65;7.88;;;17.60;99.90;;;;;;5015958;28;20046;-88
2022/08/05 01:55:59;;;;;;;13.25;6.97;;;17.40;99.90;;;;;;4996742;28;20042;-88
2022/08/05 01:58:27;;;;;;;15.45;7.78;;;17.40;99.90;;;;;;4998359;28;20123;-88
2022/08/05 02:00:56;;;;;;;14.27;7.57;;;17.40;99.90;;;;;;5015209;28;20505;-88
2022/08/05 02:03:31;;;;;;;17.05;7.57;;;17.30;99.90;;;;;;4997601;28;20041;-88
2022/08/05 02:05:57;;;;;;;15.90;7.63;;;17.40;99.90;;;;;;4997275;28;20133;-88
2022/08/05 02:08:23;;;;;;;15.32;8.25;;;17.30;99.90;;;;;;4989835;28;20489;-87
2022/08/05 02:10:53;;;;;;;16.08;7.35;;;17.30;99.90;;;;;;4997215;28;20093;-88
2022/08/05 02:13:44;;;;;;;16.30;7.75;;;17.40;99.90;;;;;;4997889;28;20045;-88
2022/08/05 02:16:28;;;;;;;16.85;7.55;;;17.30;99.90;;;;;;5015164;28;20521;-88
2022/08/05 02:19:21;;;;;;;15.60;8.20;;;17.30;99.90;;;;;;5014094;28;20052;-88
2022/08/05 02:21:53;;;;;;;14.25;7.60;;;17.30;99.90;;;;;;4998378;28;20052;-88
2022/08/05 02:24:22;;;;;;;15.95;8.30;;;17.20;99.90;;;;;;5014804;28;20049;-87
2022/08/05 02:26:57;;;;;;;16.65;7.60;;;17.20;99.90;;;;;;5014938;28;20049;-87
2022/08/05 02:29:26;;;;;;;14.57;7.72;;;17.30;99.90;;;;;;5015238;28;20054;-88
2022/08/05 02:31:54;;;;;;;14.52;7.90;;;17.40;99.90;;;;;;4996227;28;20056;-88
2022/08/05 02:34:21;;;;;;;15.95;7.50;;;17.20;99.90;;;;;;4997390;28;20371;-87
2022/08/05 02:36:54;;;;;;;16.90;8.02;;;17.50;99.90;;;;;;5014949;28;20092;-88
2022/08/05 02:39:21;;;;;;;15.23;7.70;;;17.90;99.90;;;;;;4997056;28;20054;-87
2022/08/05 02:41:49;;;;;;;14.50;7.50;;;17.70;99.90;;;;;;4996933;28;20034;-88
2022/08/05 02:44:16;;;;;;;17.08;8.15;;;17.20;99.90;;;;;;4997279;28;20494;-87
2022/08/05 02:46:45;;;;;;;15.75;8.25;;;17.70;99.90;;;;;;4996618;28;20038;-88
2022/08/05 02:49:14;;;;;;;14.10;7.22;;;17.20;99.90;;;;;;5000627;28;20042;-87
2022/08/05 02:51:41;;;;;;;16.05;7.57;;;17.10;99.90;;;;;;4996929;28;20042;-88
2022/08/05 02:54:08;;;;;;;13.70;7.28;;;17.30;99.90;;;;;;4996807;28;20080;-88
2022/08/05 02:56:34;;;;;;;15.05;7.97;;;17.10;99.90;;;;;;5015742;28;20164;-88
2022/08/05 02:59:02;;;;;;;15.23;8.07;;;17.50;99.90;;;;;;5015622;28;20080;-88
2022/08/05 03:01:30;;;;;;;16.55;7.80;;;17.30;99.90;;;;;;4996719;28;20057;-85
2022/08/05 03:04:00;;;;;;;14.95;8.15;;;17.50;99.90;;;;;;5017392;28;20018;-85
2022/08/05 03:06:26;;;;;;;18.45;8.20;;;17.10;99.90;;;;;;5032789;28;20049;-85
2022/08/05 03:08:53;;;;;;;14.45;7.82;;;17.10;99.90;;;;;;4998843;28;20401;-84
2022/08/05 03:11:25;;;;;;;17.60;8.43;;;17.10;99.90;;;;;;4997814;28;20080;-85
2022/08/05 03:13:52;;;;;;;16.20;8.48;;;17.80;99.90;;;;;;5000541;28;20052;-88
2022/08/05 03:16:18;;;;;;;16.00;8.13;;;17.10;99.90;;;;;;5013521;28;20088;-86
2022/08/05 03:18:43;;;;;;;16.23;7.93;;;17.10;99.90;;;;;;4996402;28;20057;-86
2022/08/05 03:21:10;;;;;;;17.60;8.20;;;17.10;99.90;;;;;;5013157;28;20042;-86
2022/08/05 03:23:39;;;;;;;15.85;7.90;;;17.10;99.90;;;;;;4996718;28;20044;-86
2022/08/05 03:26:05;;;;;;;15.93;7.80;;;17.10;99.90;;;;;;4996055;28;20402;-86
2022/08/05 03:28:31;;;;;;;16.35;7.38;;;17.10;99.90;;;;;;4995867;28;20397;-86
2022/08/05 03:30:59;;;;;;;16.63;7.07;;;17.10;99.90;;;;;;5013129;28;20057;-86
2022/08/05 03:33:26;;;;;;;17.65;7.53;;;17.20;99.90;;;;;;4996325;28;20054;-86
2022/08/05 03:35:54;;;;;;;13.57;6.97;;;17.50;99.90;;;;;;5012981;28;20053;-86
2022/08/05 03:38:21;;;;;;;14.88;7.07;;;17.40;99.90;;;;;;4996612;28;20412;-86
2022/08/05 03:40:47;;;;;;;13.30;7.22;;;17.80;99.90;;;;;;4995081;28;20048;-86
2022/08/05 03:43:13;;;;;;;15.32;7.72;;;17.60;99.90;;;;;;4996272;28;20132;-86
2022/08/05 03:45:39;;;;;;;15.32;7.65;;;17.50;99.90;;;;;;4996113;28;20046;-86
2022/08/05 03:48:04;;;;;;;16.58;7.47;;;17.10;99.90;;;;;;5012950;28;20672;-86
2022/08/05 03:50:51;;;;;;;14.32;7.53;;;17.20;99.90;;;;;;4996041;28;20056;-86
2022/08/05 03:53:33;;;;;;;16.23;8.00;;;17.10;99.90;;;;;;5013533;28;20044;-86
2022/08/05 03:56:14;;;;;;;17.48;8.02;;;17.20;99.90;;;;;;4994925;28;20468;-86
2022/08/05 03:58:43;;;;;;;19.75;8.43;;;17.10;99.90;;;;;;4996316;28;20073;-86
2022/08/05 04:01:11;;;;;;;15.60;7.57;;;17.20;99.90;;;;;;4993117;28;20054;-85
2022/08/05 04:03:39;;;;;;;17.15;7.43;;;17.20;99.90;;;;;;4994863;28;20053;-86
2022/08/05 04:06:05;;;;;;;16.92;7.03;;;17.60;99.90;;;;;;5012915;28;20042;-86
2022/08/05 04:08:33;;;;;;;25.95;9.07;;;17.20;99.90;;;;;;4995387;28;20378;-86
2022/08/05 04:11:16;;;;;;;16.00;7.38;;;17.30;99.90;;;;;;5012531;28;20125;-86
2022/08/05 04:13:41;;;;;;;18.48;7.85;;;17.10;99.90;;;;;;4995407;28;20053;-85
2022/08/05 04:16:12;;;;;;;14.90;7.72;;;17.20;99.90;;;;;;4994308;28;20405;-86
2022/08/05 04:18:38;;;;;;;14.68;7.25;;;17.10;99.90;;;;;;5013366;28;20046;-86
2022/08/05 04:21:06;;;;;;;17.42;7.78;;;17.50;99.90;;;;;;4995640;28;20050;-86
2022/08/05 04:23:34;;;;;;;14.63;7.00;;;17.20;99.90;;;;;;4994907;28;20042;-86
2022/08/05 04:25:59;;;;;;;17.80;6.85;;;17.20;99.90;;;;;;5012948;28;20046;-86
2022/08/05 04:28:26;;;;;;;14.50;7.63;;;17.10;99.90;;;;;;4995408;28;20038;-86
2022/08/05 04:30:52;;;;;;;15.73;7.60;;;17.10;99.90;;;;;;5011626;28;20136;-86
2022/08/05 04:33:17;;;;;;;17.98;7.30;;;17.70;99.90;;;;;;4995403;28;20136;-87
2022/08/05 04:35:43;;;;;;;16.38;7.47;;;17.60;99.90;;;;;;4994955;28;20489;-86
2022/08/05 04:38:09;;;;;;;15.10;7.00;;;17.10;99.90;;;;;;4994442;28;20050;-86
2022/08/05 04:40:39;;;;;;;13.52;6.60;;;17.60;99.90;;;;;;4995413;28;20048;-86
2022/08/05 04:43:05;;;;;;;16.05;6.97;;;17.10;99.90;;;;;;4994326;28;20100;-86
2022/08/05 04:45:32;;;;;;;14.45;6.97;;;17.00;99.90;;;;;;5012835;28;20122;-85
2022/08/05 04:48:03;;;;;;;13.48;6.97;;;17.10;99.90;;;;;;4995432;28;20046;-87
2022/08/05 04:50:38;;;;;;;15.10;6.97;;;17.60;99.90;;;;;;5032619;28;20057;-85
2022/08/05 04:53:04;;;;;;;14.43;7.03;;;17.70;99.90;;;;;;4996196;28;20038;-86
2022/08/05 04:55:29;;;;;;;14.07;6.43;;;17.60;99.90;;;;;;4999200;28;20065;-86
2022/08/05 04:57:55;;;;;;;13.63;6.63;;;17.40;99.90;;;;;;5013114;28;20037;-86
2022/08/05 05:00:20;;;;;;;18.65;7.68;;;17.30;99.90;;;;;;5013308;28;20486;-88
2022/08/05 05:02:46;;;;;;;15.07;7.15;;;17.10;99.90;;;;;;4994454;28;20038;-87
2022/08/05 05:05:11;;;;;;;14.52;6.95;;;17.10;99.90;;;;;;4994345;28;20050;-87
2022/08/05 05:07:37;;;;;;;14.27;6.80;;;17.10;99.90;;;;;;4995199;28;20050;-86
2022/08/05 05:10:05;;;;;;;15.52;6.70;;;17.10;99.90;;;;;;5012449;28;20409;-86
2022/08/05 05:12:31;;;;;;;15.88;6.88;;;17.10;99.90;;;;;;4993954;28;20478;-87
2022/08/05 05:14:56;;;;;;;13.48;6.80;;;17.40;99.90;;;;;;5012244;28;20088;-86
2022/08/05 05:17:22;;;;;;;12.57;6.43;;;17.70;99.90;;;;;;4995108;28;20140;-87
2022/08/05 05:19:47;;;;;;;15.15;6.85;;;17.30;99.90;;;;;;4994113;28;20084;-87
2022/08/05 05:22:13;;;;;;;12.77;6.13;;;17.60;99.90;;;;;;5012290;28;20049;-86
2022/08/05 05:24:39;;;;;;;11.88;6.20;;;17.70;99.90;;;;;;4994870;28;20076;-87
2022/08/05 05:27:04;;;;;;;11.32;6.10;;;17.10;99.90;;;;;;5011557;28;20057;-87
2022/08/05 05:29:30;;;;;;;14.73;6.65;;;17.10;99.90;;;;;;5012316;28;20064;-87
2022/08/05 05:31:56;;;;;;;13.32;6.40;;;17.50;99.90;;;;;;4994374;28;20046;-87
2022/08/05 05:34:22;;;;;;;14.00;6.25;;;17.70;99.90;;;;;;4994193;28;20386;-86
2022/08/05 05:36:47;;;;;;;15.82;6.30;;;17.20;99.90;;;;;;4994437;28;20045;-86
2022/08/05 05:39:14;;;;;;;15.05;6.05;;;17.20;99.90;;;;;;4994694;28;20115;-82
2022/08/05 05:41:40;;;;;;;12.77;6.13;;;17.30;99.90;;;;;;5011358;28;20038;-82
2022/08/05 05:44:05;;;;;;;14.10;6.20;;;17.40;99.90;;;;;;5012112;28;20370;-82
2022/08/05 05:46:31;;;;;;;12.05;5.55;;;17.70;99.90;;;;;;5012359;28;20042;-81
2022/08/05 05:48:57;;;;;;;13.02;5.82;;;17.90;99.90;;;;;;4993521;28;20042;-81
2022/08/05 05:51:24;;;;;;;11.35;5.65;;;17.30;99.90;;;;;;5011780;28;20468;-81
2022/08/05 05:53:51;;;;;;;15.25;5.68;;;17.40;99.90;;;;;;4995434;28;20445;-82
2022/08/05 05:56:19;;;;;;;12.43;5.78;;;17.70;99.90;;;;;;4997484;28;20092;-81
2022/08/05 05:58:46;;;;;;;12.80;5.03;;;17.40;99.90;;;;;;4997583;28;20060;-80
2022/08/05 06:01:13;;;;;;;12.98;6.05;;;17.40;99.90;;;;;;5015566;28;20084;-81
2022/08/05 06:03:40;;;;;;;14.38;6.25;;;17.40;99.90;;;;;;4997333;28;20493;-81
2022/08/05 06:06:06;;;;;;;12.13;5.05;;;17.40;99.90;;;;;;5001766;28;20041;-80
2022/08/05 06:08:32;;;;;;;13.68;5.60;;;17.40;99.90;;;;;;5022083;28;20046;-80
2022/08/05 06:10:57;;;;;;;12.75;5.63;;;17.40;99.90;;;;;;4997621;28;20565;-80
2022/08/05 06:13:23;;;;;;;10.93;5.10;;;17.40;99.90;;;;;;4997817;28;20072;-81
2022/08/05 06:15:48;;;;;;;12.10;5.88;;;17.60;99.90;;;;;;5014495;28;20069;-81
2022/08/05 06:18:14;;;;;;;13.10;5.65;;;17.40;99.90;;;;;;4997854;28;20046;-81
2022/08/05 06:20:40;;;;;;;12.18;5.32;;;17.40;99.90;;;;;;4997930;28;20085;-81
2022/08/05 06:23:05;;;;;;;10.25;4.90;;;17.30;99.90;;;;;;5006845;28;20042;-80
2022/08/05 06:25:31;;;;;;;12.30;5.30;;;17.50;99.90;;;;;;4987515;28;20110;-80
2022/08/05 06:27:56;;;;;;;13.70;6.03;;;17.40;99.90;;;;;;4991554;28;20095;-80
2022/08/05 06:30:22;;;;;;;12.35;5.47;;;17.50;99.90;;;;;;4993557;28;20556;-80
2022/08/05 06:32:49;;;;;;;13.05;5.38;;;17.60;99.90;;;;;;4984551;28;20046;-79
2022/08/05 06:35:14;;;;;;;12.23;5.13;;;17.50;99.90;;;;;;4995218;28;20061;-80
2022/08/05 06:37:40;;;;;;;10.98;5.20;;;17.60;99.90;;;;;;4994342;28;20030;-80
2022/08/05 06:40:06;;;;;;;12.60;5.47;;;17.60;99.90;;;;;;4977718;28;20100;-80
2022/08/05 06:42:32;;;;;;;11.88;5.13;;;17.70;99.90;;;;;;4995093;28;20049;-80
2022/08/05 06:44:57;;;;;;;11.27;5.63;;;17.90;99.90;;;;;;4994221;28;20034;-80
2022/08/05 06:47:23;;;;;;;10.18;5.22;;;17.90;99.90;;;;;;4995076;28;20533;-80
2022/08/05 06:49:48;;;;;;;11.13;5.15;;;18.10;99.90;;;;;;4977555;28;20050;-80
2022/08/05 06:52:14;;;;;;;11.63;4.93;;;18.40;99.90;;;;;;4995029;28;20054;-79
2022/08/05 06:54:40;;;;;;;12.60;5.32;;;18.30;99.90;;;;;;5004264;28;20363;-79
2022/08/05 06:57:05;;;;;;;10.38;4.40;;;18.30;99.90;;;;;;5004983;28;20069;-79
2022/08/05 06:59:31;;;;;;;11.50;5.00;;;18.30;99.90;;;;;;4985123;28;20039;-79
2022/08/05 07:01:56;;;;;;;13.57;5.03;;;18.30;99.90;;;;;;4992090;28;20394;-80
2022/08/05 07:04:22;;;;;;;10.52;4.60;;;18.40;99.90;;;;;;5008300;28;20073;-79
2022/08/05 07:06:47;;;;;;;12.18;4.93;;;18.40;99.90;;;;;;4997749;28;20053;-80
2022/08/05 07:09:13;;;;;;;12.40;4.35;;;18.70;99.90;;;;;;5013342;28;20077;-80
2022/08/05 07:11:39;;;;;;;11.73;5.15;;;18.30;99.90;;;;;;4995756;28;20077;-79
2022/08/05 07:16:48;;;;;;;9.90;4.57;;;18.20;99.90;;;;;;5023679;23;20051;-79
2022/08/05 07:19:19;;;;;;;10.38;4.80;;;18.40;99.90;;;;;;4961072;28;20110;-79
2022/08/05 07:21:49;;;;;;;10.50;4.50;;;18.20;99.90;;;;;;4953341;28;20130;-80
2022/08/05 07:24:16;;;;;;;10.77;4.40;;;18.20;99.90;;;;;;4938007;28;20098;-79
2022/08/05 07:26:42;;;;;;;10.40;4.55;;;18.20;99.90;;;;;;4958200;28;20138;-80
2022/08/05 07:29:08;;;;;;;10.20;4.32;;;18.30;99.90;;;;;;4973459;28;20049;-80
2022/08/05 07:31:34;;;;;;;10.98;4.32;;;18.30;99.90;;;;;;4974035;28;20191;-80
2022/08/05 07:34:00;;;;;;;11.48;4.30;;;18.40;99.90;;;;;;4973240;28;20487;-80
2022/08/05 07:36:26;;;;;;;13.25;4.47;;;18.50;99.90;;;;;;4974409;28;20081;-80
2022/08/05 07:38:52;;;;;;;9.30;3.80;;;18.60;99.90;;;;;;4974461;28;20043;-80
2022/08/05 07:41:20;;;;;;;10.93;3.67;;;18.60;99.90;;;;;;4956668;28;20053;-81
2022/08/05 07:43:45;;;;;;;9.93;3.65;;;18.60;99.90;;;;;;4956748;28;20410;-80
2022/08/05 07:46:11;;;;;;;12.13;4.10;;;18.60;99.90;;;;;;4957221;28;20043;-83
2022/08/05 07:48:37;;;;;;;9.15;3.70;;;18.80;99.90;;;;;;4955783;28;20483;-83
2022/08/05 07:51:03;;;;;;;9.57;4.13;;;19.00;99.90;;;;;;4956397;28;20053;-83
2022/08/05 07:53:28;;;;;;;9.77;4.10;;;19.00;99.90;;;;;;4974188;28;20059;-83
2022/08/05 07:55:54;;;;;;;9.50;3.65;;;19.00;99.90;;;;;;4956121;28;20053;-82
2022/08/05 07:58:19;;;;;;;10.82;3.92;;;19.20;99.90;;;;;;4957015;28;20054;-82
2022/08/05 08:00:45;;;;;;;10.30;3.38;;;19.20;99.90;;;;;;4974060;28;20051;-83
2022/08/05 08:03:12;;;;;;;9.25;3.58;;;19.30;99.90;;;;;;4973538;28;20114;-83
2022/08/05 08:05:42;;;;;;;11.88;4.22;;;19.30;99.90;;;;;;4956915;28;20043;-83
2022/08/05 08:08:10;;;;;;;9.18;3.63;;;19.30;99.90;;;;;;4973191;28;20062;-81
2022/08/05 08:10:36;;;;;;;11.32;4.15;;;19.40;99.90;;;;;;4973703;28;20053;-83
2022/08/05 08:13:02;;;;;;;9.52;3.50;;;19.80;99.90;;;;;;4956579;28;20133;-83
2022/08/05 08:15:28;;;;;;;7.40;2.95;;;19.90;99.90;;;;;;4973130;28;20046;-82
2022/08/05 08:17:57;;;;;;;8.63;3.40;;;19.90;99.90;;;;;;4956106;28;20055;-84
2022/08/05 08:20:24;;;;;;;10.48;3.10;;;20.00;99.90;;;;;;4973794;28;20501;-83
2022/08/05 08:22:54;;;;;;;7.40;2.60;;;20.10;99.90;;;;;;4972812;28;20089;-82
2022/08/05 08:25:20;;;;;;;9.75;2.80;;;20.20;99.90;;;;;;4956390;28;20545;-82
2022/08/05 08:27:46;;;;;;;8.15;2.60;;;20.10;99.90;;;;;;4973562;28;20034;-82
2022/08/05 08:30:12;;;;;;;8.48;2.92;;;20.10;99.90;;;;;;4955544;28;20042;-81
2022/08/05 08:32:38;;;;;;;9.30;3.10;;;20.20;99.90;;;;;;4973650;28;20490;-81
2022/08/05 08:35:05;;;;;;;8.85;2.90;;;20.20;99.90;;;;;;4956013;28;20046;-81
2022/08/05 08:37:30;;;;;;;8.48;3.00;;;20.10;99.90;;;;;;4955617;28;20070;-83
2022/08/05 08:39:56;;;;;;;8.85;3.05;;;20.10;99.90;;;;;;4973254;28;20129;-82
2022/08/05 08:42:22;;;;;;;10.10;3.00;;;20.70;99.90;;;;;;4956253;28;20047;-81
2022/08/05 08:44:48;;;;;;;11.68;2.97;;;20.60;99.90;;;;;;4972436;28;20070;-83
2022/08/05 08:47:15;;;;;;;7.93;3.10;;;20.40;99.90;;;;;;4956162;28;20046;-82
2022/08/05 08:49:45;;;;;;;9.52;3.22;;;20.20;99.90;;;;;;4973527;28;20117;-83
2022/08/05 08:52:18;;;;;;;10.43;2.92;;;20.20;99.90;;;;;;4955355;28;20038;-83
2022/08/05 08:54:46;;;;;;;7.93;2.97;;;20.20;99.90;;;;;;4955759;28;20058;-83
2022/08/05 08:57:12;;;;;;;6.97;2.58;;;20.90;99.90;;;;;;4972995;28;20451;-82
2022/08/05 08:59:38;;;;;;;8.43;2.50;;;20.30;99.90;;;;;;4955722;28;20050;-81
2022/08/05 09:02:06;;;;;;;7.35;2.60;;;20.50;99.90;;;;;;4955745;28;20050;-80
2022/08/05 09:04:36;;;;;;;6.70;2.10;;;21.20;99.90;;;;;;4972876;28;20067;-81
2022/08/05 09:07:05;;;;;;;7.35;2.50;;;20.70;99.90;;;;;;4958255;28;20074;-81
2022/08/05 09:09:32;;;;;;;8.48;2.30;;;20.70;99.90;;;;;;4963027;28;20057;-82
2022/08/05 09:11:58;;;;;;;7.32;2.30;;;20.90;99.90;;;;;;4975910;28;20102;-81
2022/08/05 09:14:24;;;;;;;6.40;2.53;;;20.80;99.90;;;;;;4955962;28;20051;-81
2022/08/05 09:16:50;;;;;;;8.05;2.30;;;20.80;99.90;;;;;;4955429;28;20059;-80
2022/08/05 09:19:16;;;;;;;6.75;2.25;;;20.90;99.90;;;;;;4954626;28;20050;-79
2022/08/05 09:21:42;;;;;;;7.22;2.40;;;20.70;99.90;;;;;;4956037;28;20051;-81
2022/08/05 09:24:08;;;;;;;6.70;2.40;;;20.70;99.90;;;;;;4973127;28;20513;-80
2022/08/05 09:26:35;;;;;;;7.07;2.33;;;20.80;99.90;;;;;;4971248;28;20051;-80
2022/08/05 09:29:03;;;;;;;7.90;2.72;;;20.90;99.90;;;;;;4974626;28;20039;-79
2022/08/05 09:31:29;;;;;;;7.43;2.15;;;20.90;99.90;;;;;;4977254;28;20049;-80
2022/08/05 09:34:03;;;;;;;6.05;2.10;;;21.00;99.90;;;;;;4976067;28;20046;-80
2022/08/05 09:36:43;;;;;;;6.47;2.20;;;20.90;99.90;;;;;;4977023;28;20118;-81
2022/08/05 09:39:10;;;;;;;7.80;2.08;;;20.80;99.90;;;;;;4959504;28;20097;-80
2022/08/05 09:41:56;;;;;;;6.70;2.30;;;20.80;99.90;;;;;;4958747;28;20570;-81
2022/08/05 09:44:40;;;;;;;6.38;2.40;;;20.70;99.90;;;;;;4976692;28;20053;-81
2022/08/05 09:47:12;;;;;;;8.15;2.00;;;20.80;99.90;;;;;;4958117;28;20038;-82
2022/08/05 09:49:46;;;;;;;4.13;1.70;;;21.00;99.90;;;;;;4959370;28;20054;-83
2022/08/05 09:52:16;;;;;;;6.47;1.88;;;21.10;99.90;;;;;;4959562;28;20074;-82
2022/08/05 09:54:58;;;;;;;6.63;1.83;;;21.10;99.90;;;;;;4958648;28;20130;-81
2022/08/05 09:57:45;;;;;;;5.80;1.80;;;21.20;99.90;;;;;;4959272;28;20129;-79
2022/08/05 10:00:17;;;;;;;4.53;1.60;;;21.50;99.90;;;;;;4959146;28;20039;-79
2022/08/05 10:02:48;;;;;;;6.13;1.90;;;21.60;99.90;;;;;;4975459;28;20082;-80
2022/08/05 10:05:19;;;;;;;5.47;1.80;;;21.80;99.90;;;;;;4958897;28;20051;-80
2022/08/05 10:07:50;;;;;;;6.15;2.10;;;22.00;99.90;;;;;;4975333;28;20046;-81
2022/08/05 10:10:24;;;;;;;5.45;2.00;;;22.10;99.90;;;;;;4975885;28;20424;-81
2022/08/05 10:12:56;;;;;;;5.10;1.92;;;21.90;99.90;;;;;;4958933;28;20050;-81
2022/08/05 10:15:37;;;;;;;5.38;1.90;;;21.80;99.90;;;;;;4957991;28;20051;-81
2022/08/05 10:18:21;;;;;;;7.75;2.00;;;21.90;99.90;;;;;;4975934;28;20062;-81
2022/08/05 10:20:52;;;;;;;6.93;1.95;;;22.20;99.90;;;;;;4958144;28;20495;-80
2022/08/05 10:23:25;;;;;;;9.02;1.80;;;22.30;99.90;;;;;;4958021;28;20100;-80
2022/08/05 10:25:51;;;;;;;5.38;1.67;;;22.30;99.90;;;;;;4958920;28;20073;-80
2022/08/05 10:28:17;;;;;;;5.15;1.80;;;22.20;99.90;;;;;;4958294;28;20616;-81
2022/08/05 10:30:43;;;;;;;6.65;1.70;;;22.30;99.90;;;;;;4974702;28;20054;-80
2022/08/05 10:33:09;;;;;;;15.85;2.28;;;22.60;99.90;;;;;;4975576;28;20085;-81
2022/08/05 10:35:35;;;;;;;8.63;1.65;;;22.70;99.90;;;;;;4976142;28;20078;-81
2022/08/05 10:38:03;;;;;;;5.22;1.40;;;23.40;99.90;;;;;;4957783;28;20042;-81
2022/08/05 10:40:50;;;;;;;5.53;1.40;;;23.00;99.90;;;;;;4956977;28;20086;-82
2022/08/05 10:43:40;;;;;;;5.95;1.70;;;22.80;99.90;;;;;;4975288;28;20047;-82
2022/08/05 10:46:08;;;;;;;4.22;1.40;;;23.10;99.90;;;;;;4957677;28;20134;-81
2022/08/05 10:48:42;;;;;;;6.00;1.40;;;23.00;99.90;;;;;;4958106;28;20065;-82
2022/08/05 10:51:15;;;;;;;5.30;1.60;;;22.90;99.30;;;;;;4957480;28;20510;-81
2022/08/05 10:53:50;;;;;;;7.78;1.80;;;22.80;99.80;;;;;;4975349;28;20442;-81
2022/08/05 10:56:18;;;;;;;7.15;1.50;;;23.00;96.50;;;;;;4957911;28;20050;-82
2022/08/05 10:58:52;;;;;;;7.40;1.70;;;23.00;99.80;;;;;;4974403;28;20395;-81
2022/08/05 11:01:27;;;;;;;5.10;1.50;;;23.20;98.80;;;;;;4958171;28;20047;-82
2022/08/05 11:03:59;;;;;;;2.72;1.38;;;23.40;98.80;;;;;;4974290;28;20565;-81
2022/08/05 11:06:25;;;;;;;3.58;1.35;;;23.60;95.70;;;;;;4957914;28;20054;-80
2022/08/05 11:09:09;;;;;;;3.53;1.30;;;23.60;97.70;;;;;;4974744;28;20486;-80
2022/08/05 11:11:35;;;;;;;5.63;1.58;;;23.50;94.60;;;;;;4957445;28;20121;-80
2022/08/05 11:14:02;;;;;;;4.03;1.50;;;23.70;97.70;;;;;;4975065;28;20066;-81
2022/08/05 11:16:28;;;;;;;4.18;1.60;;;23.70;95.50;;;;;;4974748;28;20573;-80
2022/08/05 11:19:29;;;;;;;3.35;1.40;;;23.80;97.80;;;;;;4956920;28;20136;-81
2022/08/05 11:22:15;;;;;;;4.95;1.50;;;24.00;94.90;;;;;;4974893;28;20057;-82
2022/08/05 11:24:43;;;;;;;3.65;1.33;;;24.00;95.60;;;;;;4957378;28;20043;-81
2022/08/05 11:27:28;;;;;;;3.45;1.40;;;23.60;92.60;;;;;;4974376;28;20050;-84
2022/08/05 11:29:59;;;;;;;3.28;1.20;;;23.80;94.30;;;;;;4974591;28;20042;-84
2022/08/05 11:32:33;;;;;;;4.18;1.30;;;24.10;95.90;;;;;;4956444;28;20054;-89
2022/08/05 11:35:05;;;;;;;4.28;1.40;;;24.10;94.00;;;;;;4974596;28;20043;-88
2022/08/05 11:37:53;;;;;;;4.68;1.40;;;24.10;93.00;;;;;;4974671;28;20101;-87
2022/08/05 11:40:18;;;;;;;4.38;1.30;;;24.10;92.90;;;;;;4973933;28;20051;-79
2022/08/05 11:42:45;;;;;;;2.78;1.15;;;23.90;92.40;;;;;;4956834;28;20405;-80
2022/08/05 11:45:11;;;;;;;2.00;1.05;;;23.70;88.80;;;;;;4957257;28;20561;-80
2022/08/05 11:47:36;;;;;;;4.53;1.30;;;23.70;91.20;;;;;;4956422;28;20125;-80
2022/08/05 11:50:03;;;;;;;2.70;1.10;;;23.80;89.80;;;;;;4956647;28;20554;-80
2022/08/05 11:52:30;;;;;;;2.55;1.10;;;23.80;89.50;;;;;;4956525;28;20039;-80
2022/08/05 11:54:57;;;;;;;3.75;1.20;;;23.80;87.80;;;;;;4973275;28;20462;-80
2022/08/05 11:57:28;;;;;;;2.25;1.25;;;23.80;87.50;;;;;;4974406;28;20039;-80
2022/08/05 11:59:54;;;;;;;3.33;0.95;;;24.00;85.20;;;;;;4974235;28;20077;-80
2022/08/05 12:02:26;;;;;;;4.32;1.27;;;24.00;86.70;;;;;;4956237;28;20046;-80
2022/08/05 12:04:52;;;;;;;2.87;1.20;;;23.80;86.60;;;;;;4973857;28;20050;-79
2022/08/05 12:07:17;;;;;;;5.68;1.40;;;23.90;86.10;;;;;;4973444;28;20109;-79
2022/08/05 12:09:48;;;;;;;1.60;1.00;;;23.80;83.90;;;;;;4975078;28;20340;-80
2022/08/05 12:12:23;;;;;;;2.55;1.10;;;23.10;82.00;;;;;;4956954;28;20170;-79
2022/08/05 12:14:49;;;;;;;2.40;1.15;;;23.30;80.90;;;;;;4973496;28;20050;-80
2022/08/05 12:17:15;;;;;;;2.88;1.20;;;23.80;85.10;;;;;;4956148;28;20087;-80
2022/08/05 12:19:45;;;;;;;1.52;1.00;;;23.90;82.00;;;;;;4973481;28;20066;-79
2022/08/05 12:22:13;;;;;;;1.98;1.00;;;23.80;81.80;;;;;;4956018;28;20047;-79
2022/08/05 12:24:43;;;;;;;2.80;1.00;;;23.80;80.80;;;;;;4973819;28;20098;-80
2022/08/05 12:27:09;;;;;;;2.85;1.00;;;23.20;82.40;;;;;;4973991;28;20129;-79
2022/08/05 12:29:35;;;;;;;2.50;1.00;;;23.10;81.90;;;;;;4973025;28;20051;-79
2022/08/05 12:32:01;;;;;;;1.65;1.10;;;23.30;82.40;;;;;;4973150;28;20546;-79
2022/08/05 12:34:30;;;;;;;3.55;1.10;;;23.30;83.10;;;;;;4972324;28;20129;-80
2022/08/05 12:37:00;;;;;;;1.88;0.85;;;23.30;83.50;;;;;;4972623;28;20047;-79
2022/08/05 12:39:27;;;;;;;2.20;1.08;;;23.20;83.70;;;;;;4973538;28;20129;-80
2022/08/05 12:41:59;;;;;;;2.30;1.23;;;23.00;83.70;;;;;;4970612;28;20050;-79
2022/08/05 12:44:25;;;;;;;1.85;0.98;;;23.10;82.50;;;;;;4972230;28;20042;-80
2022/08/05 12:46:53;;;;;;;5.97;1.20;;;23.40;84.10;;;;;;4955694;28;20097;-80
2022/08/05 12:49:19;;;;;;;5.45;1.52;;;23.30;83.40;;;;;;4950980;28;20134;-79
2022/08/05 12:51:54;;;;;;;4.78;1.27;;;23.00;82.60;;;;;;4972038;28;20125;-80